sensor_id;sensor_type;location;lat;lon;timestamp;temperature;humidity
26990;DHT22;14537;47.788;11.858;2022-09-09T00:00:16;12.90;99.90
26990;DHT22;14537;47.788;11.858;2022-09-09T00:02:49;12.90;99.90
26990;DHT22;14537;47.788;11.858;2022-09-09T00:05:25;12.90;99.90
26990;DHT22;14537;47.788;11.858;2022-09-09T00:07:53;12.90;99.90
26990;DHT22;14537;47.788;11.858;2022-09-09T00:10:25;13.00;99.90
26990;DHT22;14537;47.788;11.858;2022-09-09T00:12:54;13.10;99.90
26990;DHT22;14537;47.788;11.858;2022-09-09T00:15:23;13.10;99.90
26990;DHT22;14537;47.788;11.858;2022-09-09T00:20:39;13.20;99.90
26990;DHT22;14537;47.788;11.858;2022-09-09T00:28:24;13.20;99.90
26990;DHT22;14537;47.788;11.858;2022-09-09T00:30:50;13.20;99.90
26990;DHT22;14537;47.788;11.858;2022-09-09T00:33:19;13.20;99.90
26990;DHT22;14537;47.788;11.858;2022-09-09T00:35:58;13.20;99.90
26990;DHT22;14537;47.788;11.858;2022-09-09T00:41:35;13.10;99.90
26990;DHT22;14537;47.788;11.858;2022-09-09T00:43:40;13.10;99.90
26990;DHT22;14537;47.788;11.858;2022-09-09T00:48:51;13.20;99.90
26990;DHT22;14537;47.788;11.858;2022-09-09T00:51:36;13.20;99.90
26990;DHT22;14537;47.788;11.858;2022-09-09T00:56:34;13.40;99.90
26990;DHT22;14537;47.788;11.858;2022-09-09T00:59:10;13.40;99.90
26990;DHT22;14537;47.788;11.858;2022-09-09T01:01:37;13.40;99.90
26990;DHT22;14537;47.788;11.858;2022-09-09T01:04:05;13.40;99.90
26990;DHT22;14537;47.788;11.858;2022-09-09T01:06:38;13.50;99.90
26990;DHT22;14537;47.788;11.858;2022-09-09T01:09:10;13.50;99.90
26990;DHT22;14537;47.788;11.858;2022-09-09T01:16:54;13.60;99.90
26990;DHT22;14537;47.788;11.858;2022-09-09T01:19:24;13.60;99.90
26990;DHT22;14537;47.788;11.858;2022-09-09T01:22:56;13.60;99.90
26990;DHT22;14537;47.788;11.858;2022-09-09T01:27:32;13.70;99.90
26990;DHT22;14537;47.788;11.858;2022-09-09T01:29:58;13.60;99.90
26990;DHT22;14537;47.788;11.858;2022-09-09T01:32:38;13.60;99.90
26990;DHT22;14537;47.788;11.858;2022-09-09T01:35:05;13.60;99.90
26990;DHT22;14537;47.788;11.858;2022-09-09T01:37:32;13.60;99.90
26990;DHT22;14537;47.788;11.858;2022-09-09T01:39:58;13.60;99.90
26990;DHT22;14537;47.788;11.858;2022-09-09T01:42:24;13.50;99.90
26990;DHT22;14537;47.788;11.858;2022-09-09T01:44:50;13.60;99.90
26990;DHT22;14537;47.788;11.858;2022-09-09T01:47:16;13.70;99.90
26990;DHT22;14537;47.788;11.858;2022-09-09T01:49:42;13.70;99.90
26990;DHT22;14537;47.788;11.858;2022-09-09T01:52:07;13.70;99.90
26990;DHT22;14537;47.788;11.858;2022-09-09T01:54:34;13.70;99.90
26990;DHT22;14537;47.788;11.858;2022-09-09T02:02:01;13.80;99.90
26990;DHT22;14537;47.788;11.858;2022-09-09T02:07:00;13.80;99.90
26990;DHT22;14537;47.788;11.858;2022-09-09T02:09:26;13.80;99.90
26990;DHT22;14537;47.788;11.858;2022-09-09T02:12:00;13.80;99.90
26990;DHT22;14537;47.788;11.858;2022-09-09T02:14:28;13.90;99.90
26990;DHT22;14537;47.788;11.858;2022-09-09T02:17:01;13.90;99.90
26990;DHT22;14537;47.788;11.858;2022-09-09T02:19:29;13.90;99.90
26990;DHT22;14537;47.788;11.858;2022-09-09T02:21:57;13.90;99.90
26990;DHT22;14537;47.788;11.858;2022-09-09T02:24:25;13.90;99.90
26990;DHT22;14537;47.788;11.858;2022-09-09T02:26:52;13.90;99.90
26990;DHT22;14537;47.788;11.858;2022-09-09T02:29:21;14.00;99.90
26990;DHT22;14537;47.788;11.858;2022-09-09T02:31:48;14.00;99.90
26990;DHT22;14537;47.788;11.858;2022-09-09T02:34:15;14.00;99.90
26990;DHT22;14537;47.788;11.858;2022-09-09T02:36:42;14.00;99.90
26990;DHT22;14537;47.788;11.858;2022-09-09T02:39:09;14.00;99.90
26990;DHT22;14537;47.788;11.858;2022-09-09T02:41:36;14.00;99.90
26990;DHT22;14537;47.788;11.858;2022-09-09T02:44:05;14.10;99.90
26990;DHT22;14537;47.788;11.858;2022-09-09T02:46:42;14.00;99.90
26990;DHT22;14537;47.788;11.858;2022-09-09T02:49:18;14.00;99.90
26990;DHT22;14537;47.788;11.858;2022-09-09T02:56:50;14.10;99.90
26990;DHT22;14537;47.788;11.858;2022-09-09T02:59:18;14.10;99.90
26990;DHT22;14537;47.788;11.858;2022-09-09T03:01:43;14.10;99.90
26990;DHT22;14537;47.788;11.858;2022-09-09T03:04:10;14.10;99.90
26990;DHT22;14537;47.788;11.858;2022-09-09T03:06:35;14.10;99.90
26990;DHT22;14537;47.788;11.858;2022-09-09T03:09:01;14.10;99.90
26990;DHT22;14537;47.788;11.858;2022-09-09T03:11:28;14.20;99.90
26990;DHT22;14537;47.788;11.858;2022-09-09T03:13:54;14.10;99.90
26990;DHT22;14537;47.788;11.858;2022-09-09T03:16:21;14.10;99.90
26990;DHT22;14537;47.788;11.858;2022-09-09T03:18:47;14.10;99.90
26990;DHT22;14537;47.788;11.858;2022-09-09T03:21:13;14.00;99.90
26990;DHT22;14537;47.788;11.858;2022-09-09T03:23:39;14.00;99.90
26990;DHT22;14537;47.788;11.858;2022-09-09T03:26:05;14.00;99.90
26990;DHT22;14537;47.788;11.858;2022-09-09T03:28:30;13.90;99.90
26990;DHT22;14537;47.788;11.858;2022-09-09T03:31:00;13.80;99.90
26990;DHT22;14537;47.788;11.858;2022-09-09T03:33:25;13.80;99.90
26990;DHT22;14537;47.788;11.858;2022-09-09T03:35:51;13.80;99.90
26990;DHT22;14537;47.788;11.858;2022-09-09T03:38:17;13.70;99.90
26990;DHT22;14537;47.788;11.858;2022-09-09T03:40:49;13.80;99.90
26990;DHT22;14537;47.788;11.858;2022-09-09T03:43:15;13.70;99.90
26990;DHT22;14537;47.788;11.858;2022-09-09T03:45:45;13.70;99.90
26990;DHT22;14537;47.788;11.858;2022-09-09T03:48:11;13.70;99.90
26990;DHT22;14537;47.788;11.858;2022-09-09T03:50:37;13.70;99.90
26990;DHT22;14537;47.788;11.858;2022-09-09T03:53:02;13.70;99.90
26990;DHT22;14537;47.788;11.858;2022-09-09T03:55:28;13.70;99.90
26990;DHT22;14537;47.788;11.858;2022-09-09T03:57:53;13.70;99.90
26990;DHT22;14537;47.788;11.858;2022-09-09T04:00:19;13.60;99.90
26990;DHT22;14537;47.788;11.858;2022-09-09T04:02:45;13.60;99.90
26990;DHT22;14537;47.788;11.858;2022-09-09T04:05:11;13.60;99.90
26990;DHT22;14537;47.788;11.858;2022-09-09T04:07:36;13.50;99.90
26990;DHT22;14537;47.788;11.858;2022-09-09T04:10:02;13.50;99.90
26990;DHT22;14537;47.788;11.858;2022-09-09T04:12:27;13.40;99.90
26990;DHT22;14537;47.788;11.858;2022-09-09T04:14:53;13.30;99.90
26990;DHT22;14537;47.788;11.858;2022-09-09T04:17:18;13.40;99.90
26990;DHT22;14537;47.788;11.858;2022-09-09T04:19:44;13.40;99.90
26990;DHT22;14537;47.788;11.858;2022-09-09T04:22:10;13.40;99.90
26990;DHT22;14537;47.788;11.858;2022-09-09T04:24:35;13.40;99.90
26990;DHT22;14537;47.788;11.858;2022-09-09T04:27:01;13.40;99.90
26990;DHT22;14537;47.788;11.858;2022-09-09T04:29:27;13.40;99.90
26990;DHT22;14537;47.788;11.858;2022-09-09T04:31:52;13.40;99.90
26990;DHT22;14537;47.788;11.858;2022-09-09T04:34:18;13.40;99.90
26990;DHT22;14537;47.788;11.858;2022-09-09T04:36:43;13.40;99.90
26990;DHT22;14537;47.788;11.858;2022-09-09T04:39:09;13.40;99.90
26990;DHT22;14537;47.788;11.858;2022-09-09T04:41:35;13.40;99.90
26990;DHT22;14537;47.788;11.858;2022-09-09T04:44:00;13.40;99.90
26990;DHT22;14537;47.788;11.858;2022-09-09T04:46:26;13.40;99.90
26990;DHT22;14537;47.788;11.858;2022-09-09T04:48:52;13.40;99.90
26990;DHT22;14537;47.788;11.858;2022-09-09T04:51:18;13.40;99.90
26990;DHT22;14537;47.788;11.858;2022-09-09T04:53:43;13.40;99.90
26990;DHT22;14537;47.788;11.858;2022-09-09T04:56:13;13.40;99.90
26990;DHT22;14537;47.788;11.858;2022-09-09T04:58:39;13.50;99.90
26990;DHT22;14537;47.788;11.858;2022-09-09T05:01:12;13.40;99.90
26990;DHT22;14537;47.788;11.858;2022-09-09T05:03:38;13.40;99.90
26990;DHT22;14537;47.788;11.858;2022-09-09T05:06:07;13.40;99.90
26990;DHT22;14537;47.788;11.858;2022-09-09T05:08:35;13.40;99.90
26990;DHT22;14537;47.788;11.858;2022-09-09T05:11:00;13.40;99.90
26990;DHT22;14537;47.788;11.858;2022-09-09T05:13:26;13.40;99.90
26990;DHT22;14537;47.788;11.858;2022-09-09T05:15:53;13.40;99.90
26990;DHT22;14537;47.788;11.858;2022-09-09T05:18:19;13.40;99.90
26990;DHT22;14537;47.788;11.858;2022-09-09T05:20:44;13.40;99.90
26990;DHT22;14537;47.788;11.858;2022-09-09T05:23:10;13.40;99.90
26990;DHT22;14537;47.788;11.858;2022-09-09T05:25:38;13.50;99.90
26990;DHT22;14537;47.788;11.858;2022-09-09T05:28:04;13.60;99.90
26990;DHT22;14537;47.788;11.858;2022-09-09T05:30:30;13.50;99.90
26990;DHT22;14537;47.788;11.858;2022-09-09T05:32:56;13.50;99.90
26990;DHT22;14537;47.788;11.858;2022-09-09T05:35:22;13.50;99.90
26990;DHT22;14537;47.788;11.858;2022-09-09T05:37:48;13.50;99.90
26990;DHT22;14537;47.788;11.858;2022-09-09T05:40:14;13.50;99.90
26990;DHT22;14537;47.788;11.858;2022-09-09T05:42:40;13.60;99.90
26990;DHT22;14537;47.788;11.858;2022-09-09T05:45:06;13.60;99.90
26990;DHT22;14537;47.788;11.858;2022-09-09T05:47:33;13.70;99.90
26990;DHT22;14537;47.788;11.858;2022-09-09T05:49:58;13.70;99.90
26990;DHT22;14537;47.788;11.858;2022-09-09T05:52:24;13.80;99.90
26990;DHT22;14537;47.788;11.858;2022-09-09T05:54:51;13.80;99.90
26990;DHT22;14537;47.788;11.858;2022-09-09T05:57:17;13.80;99.90
26990;DHT22;14537;47.788;11.858;2022-09-09T05:59:44;13.80;99.90
26990;DHT22;14537;47.788;11.858;2022-09-09T06:02:10;13.70;99.90
26990;DHT22;14537;47.788;11.858;2022-09-09T06:04:35;13.70;99.90
26990;DHT22;14537;47.788;11.858;2022-09-09T06:07:01;13.60;99.90
26990;DHT22;14537;47.788;11.858;2022-09-09T06:09:26;13.60;99.90
26990;DHT22;14537;47.788;11.858;2022-09-09T06:11:52;13.70;99.90
26990;DHT22;14537;47.788;11.858;2022-09-09T06:14:19;13.80;99.90
26990;DHT22;14537;47.788;11.858;2022-09-09T06:16:45;13.80;99.90
26990;DHT22;14537;47.788;11.858;2022-09-09T06:19:11;13.90;99.90
26990;DHT22;14537;47.788;11.858;2022-09-09T06:21:38;14.00;99.90
26990;DHT22;14537;47.788;11.858;2022-09-09T06:24:04;14.00;99.90
26990;DHT22;14537;47.788;11.858;2022-09-09T06:26:33;14.00;99.90
26990;DHT22;14537;47.788;11.858;2022-09-09T06:28:59;14.00;99.90
26990;DHT22;14537;47.788;11.858;2022-09-09T06:31:26;14.00;99.90
26990;DHT22;14537;47.788;11.858;2022-09-09T06:33:55;14.00;99.90
26990;DHT22;14537;47.788;11.858;2022-09-09T06:36:22;14.00;99.90
26990;DHT22;14537;47.788;11.858;2022-09-09T06:38:48;14.00;99.90
26990;DHT22;14537;47.788;11.858;2022-09-09T06:41:15;14.00;99.90
26990;DHT22;14537;47.788;11.858;2022-09-09T06:43:41;14.00;99.90
26990;DHT22;14537;47.788;11.858;2022-09-09T06:46:10;14.10;99.90
26990;DHT22;14537;47.788;11.858;2022-09-09T06:48:36;14.10;99.90
26990;DHT22;14537;47.788;11.858;2022-09-09T06:51:09;14.10;99.90
26990;DHT22;14537;47.788;11.858;2022-09-09T06:53:39;14.10;99.90
26990;DHT22;14537;47.788;11.858;2022-09-09T06:58:37;14.20;99.90
26990;DHT22;14537;47.788;11.858;2022-09-09T07:01:03;14.20;99.90
26990;DHT22;14537;47.788;11.858;2022-09-09T07:03:29;14.20;99.90
26990;DHT22;14537;47.788;11.858;2022-09-09T07:05:55;14.20;99.90
26990;DHT22;14537;47.788;11.858;2022-09-09T07:08:21;14.20;99.90
26990;DHT22;14537;47.788;11.858;2022-09-09T07:10:47;14.20;99.90
26990;DHT22;14537;47.788;11.858;2022-09-09T07:13:13;14.20;99.90
26990;DHT22;14537;47.788;11.858;2022-09-09T07:15:41;14.30;99.90
26990;DHT22;14537;47.788;11.858;2022-09-09T07:18:07;14.30;99.90
26990;DHT22;14537;47.788;11.858;2022-09-09T07:20:32;14.40;99.90
26990;DHT22;14537;47.788;11.858;2022-09-09T07:22:58;14.40;99.90
26990;DHT22;14537;47.788;11.858;2022-09-09T07:25:24;14.40;99.90
26990;DHT22;14537;47.788;11.858;2022-09-09T07:27:53;14.40;99.90
26990;DHT22;14537;47.788;11.858;2022-09-09T07:30:20;14.50;99.90
26990;DHT22;14537;47.788;11.858;2022-09-09T07:32:45;14.50;99.90
26990;DHT22;14537;47.788;11.858;2022-09-09T07:35:11;14.60;99.90
26990;DHT22;14537;47.788;11.858;2022-09-09T07:37:37;14.60;99.90
26990;DHT22;14537;47.788;11.858;2022-09-09T07:40:03;14.60;99.90
26990;DHT22;14537;47.788;11.858;2022-09-09T07:42:28;14.60;99.90
26990;DHT22;14537;47.788;11.858;2022-09-09T07:44:54;14.70;99.90
26990;DHT22;14537;47.788;11.858;2022-09-09T07:47:20;14.70;99.90
26990;DHT22;14537;47.788;11.858;2022-09-09T07:49:46;14.70;99.90
26990;DHT22;14537;47.788;11.858;2022-09-09T07:52:12;14.70;99.90
26990;DHT22;14537;47.788;11.858;2022-09-09T07:54:37;14.70;99.90
26990;DHT22;14537;47.788;11.858;2022-09-09T07:57:03;14.70;99.90
26990;DHT22;14537;47.788;11.858;2022-09-09T07:59:29;14.70;99.90
26990;DHT22;14537;47.788;11.858;2022-09-09T08:01:55;14.80;99.90
26990;DHT22;14537;47.788;11.858;2022-09-09T08:04:21;14.70;99.90
26990;DHT22;14537;47.788;11.858;2022-09-09T08:09:18;14.80;99.90
26990;DHT22;14537;47.788;11.858;2022-09-09T08:11:43;14.70;99.90
26990;DHT22;14537;47.788;11.858;2022-09-09T08:14:10;14.60;99.90
26990;DHT22;14537;47.788;11.858;2022-09-09T08:16:37;14.50;99.90
26990;DHT22;14537;47.788;11.858;2022-09-09T08:19:03;14.50;99.90
26990;DHT22;14537;47.788;11.858;2022-09-09T08:21:30;14.50;99.90
26990;DHT22;14537;47.788;11.858;2022-09-09T08:23:57;14.60;99.90
26990;DHT22;14537;47.788;11.858;2022-09-09T08:26:28;14.60;99.90
26990;DHT22;14537;47.788;11.858;2022-09-09T08:28:54;14.60;99.90
26990;DHT22;14537;47.788;11.858;2022-09-09T08:31:24;14.60;99.90
26990;DHT22;14537;47.788;11.858;2022-09-09T08:33:50;14.60;99.90
26990;DHT22;14537;47.788;11.858;2022-09-09T08:36:19;14.40;99.90
26990;DHT22;14537;47.788;11.858;2022-09-09T08:38:52;14.50;99.90
26990;DHT22;14537;47.788;11.858;2022-09-09T08:41:31;14.50;99.90
26990;DHT22;14537;47.788;11.858;2022-09-09T08:44:22;14.60;99.90
26990;DHT22;14537;47.788;11.858;2022-09-09T08:52:02;14.90;99.90
26990;DHT22;14537;47.788;11.858;2022-09-09T08:54:29;14.90;99.90
26990;DHT22;14537;47.788;11.858;2022-09-09T08:56:58;15.00;99.90
26990;DHT22;14537;47.788;11.858;2022-09-09T08:59:23;15.20;99.90
26990;DHT22;14537;47.788;11.858;2022-09-09T09:04:29;15.30;99.90
26990;DHT22;14537;47.788;11.858;2022-09-09T09:12:00;15.50;99.90
26990;DHT22;14537;47.788;11.858;2022-09-09T09:14:30;15.40;99.90
26990;DHT22;14537;47.788;11.858;2022-09-09T09:16:57;15.40;99.90
26990;DHT22;14537;47.788;11.858;2022-09-09T09:19:24;15.30;99.90
26990;DHT22;14537;47.788;11.858;2022-09-09T09:24:21;15.30;99.90
26990;DHT22;14537;47.788;11.858;2022-09-09T09:26:48;15.20;99.90
26990;DHT22;14537;47.788;11.858;2022-09-09T09:29:15;15.20;99.90
26990;DHT22;14537;47.788;11.858;2022-09-09T09:31:51;15.20;99.90
26990;DHT22;14537;47.788;11.858;2022-09-09T09:34:17;15.10;99.90
26990;DHT22;14537;47.788;11.858;2022-09-09T09:39:09;15.00;99.90
26990;DHT22;14537;47.788;11.858;2022-09-09T09:41:36;14.90;99.90
26990;DHT22;14537;47.788;11.858;2022-09-09T09:44:04;14.90;99.90
26990;DHT22;14537;47.788;11.858;2022-09-09T09:46:30;14.90;99.90
26990;DHT22;14537;47.788;11.858;2022-09-09T09:49:00;14.90;99.90
26990;DHT22;14537;47.788;11.858;2022-09-09T09:51:26;14.90;99.90
26990;DHT22;14537;47.788;11.858;2022-09-09T09:53:53;14.80;99.90
26990;DHT22;14537;47.788;11.858;2022-09-09T09:56:26;14.80;99.90
26990;DHT22;14537;47.788;11.858;2022-09-09T09:58:52;14.80;99.90
26990;DHT22;14537;47.788;11.858;2022-09-09T10:01:37;14.70;99.90
26990;DHT22;14537;47.788;11.858;2022-09-09T10:04:14;14.60;99.90
26990;DHT22;14537;47.788;11.858;2022-09-09T10:06:41;14.50;99.90
26990;DHT22;14537;47.788;11.858;2022-09-09T10:09:26;14.60;99.90
26990;DHT22;14537;47.788;11.858;2022-09-09T10:14:23;14.80;99.90
26990;DHT22;14537;47.788;11.858;2022-09-09T10:30:09;14.90;99.90
26990;DHT22;14537;47.788;11.858;2022-09-09T10:35:25;14.90;99.90
26990;DHT22;14537;47.788;11.858;2022-09-09T10:43:26;14.80;99.90
26990;DHT22;14537;47.788;11.858;2022-09-09T10:46:04;14.80;99.90
26990;DHT22;14537;47.788;11.858;2022-09-09T10:48:50;14.70;99.90
26990;DHT22;14537;47.788;11.858;2022-09-09T10:51:23;14.80;99.90
26990;DHT22;14537;47.788;11.858;2022-09-09T10:56:20;14.80;99.90
26990;DHT22;14537;47.788;11.858;2022-09-09T10:58:48;14.90;99.90
26990;DHT22;14537;47.788;11.858;2022-09-09T11:04:03;15.00;99.90
26990;DHT22;14537;47.788;11.858;2022-09-09T11:06:34;15.00;99.90
26990;DHT22;14537;47.788;11.858;2022-09-09T11:09:02;15.10;99.90
26990;DHT22;14537;47.788;11.858;2022-09-09T11:11:34;15.20;99.90
26990;DHT22;14537;47.788;11.858;2022-09-09T11:16:36;15.30;99.90
26990;DHT22;14537;47.788;11.858;2022-09-09T11:21:37;15.60;99.90
26990;DHT22;14537;47.788;11.858;2022-09-09T11:24:06;15.60;99.90
26990;DHT22;14537;47.788;11.858;2022-09-09T11:26:37;15.60;99.90
26990;DHT22;14537;47.788;11.858;2022-09-09T11:34:12;15.60;99.90
26990;DHT22;14537;47.788;11.858;2022-09-09T11:37:01;15.60;99.90
26990;DHT22;14537;47.788;11.858;2022-09-09T11:44:39;15.60;99.90
26990;DHT22;14537;47.788;11.858;2022-09-09T11:47:26;15.70;99.90
26990;DHT22;14537;47.788;11.858;2022-09-09T11:49:54;15.80;99.90
26990;DHT22;14537;47.788;11.858;2022-09-09T11:54:47;15.90;99.90
26990;DHT22;14537;47.788;11.858;2022-09-09T11:57:32;16.10;99.90
26990;DHT22;14537;47.788;11.858;2022-09-09T11:59:58;16.10;99.90
26990;DHT22;14537;47.788;11.858;2022-09-09T12:02:26;16.20;99.90
26990;DHT22;14537;47.788;11.858;2022-09-09T12:07:25;16.40;99.90
26990;DHT22;14537;47.788;11.858;2022-09-09T12:09:57;16.50;99.90
26990;DHT22;14537;47.788;11.858;2022-09-09T12:12:29;16.50;99.90
26990;DHT22;14537;47.788;11.858;2022-09-09T12:14:56;16.70;99.90
26990;DHT22;14537;47.788;11.858;2022-09-09T12:17:23;16.80;99.90
26990;DHT22;14537;47.788;11.858;2022-09-09T12:33:11;17.20;99.90
26990;DHT22;14537;47.788;11.858;2022-09-09T12:35:38;17.20;99.90
26990;DHT22;14537;47.788;11.858;2022-09-09T12:38:04;17.10;99.90
26990;DHT22;14537;47.788;11.858;2022-09-09T12:40:33;17.10;99.90
26990;DHT22;14537;47.788;11.858;2022-09-09T12:43:01;17.10;99.90
26990;DHT22;14537;47.788;11.858;2022-09-09T12:45:30;17.10;99.90
26990;DHT22;14537;47.788;11.858;2022-09-09T12:48:00;17.10;99.90
26990;DHT22;14537;47.788;11.858;2022-09-09T12:50:27;17.10;99.90
26990;DHT22;14537;47.788;11.858;2022-09-09T12:52:55;17.10;99.90
26990;DHT22;14537;47.788;11.858;2022-09-09T12:55:24;17.10;99.90
26990;DHT22;14537;47.788;11.858;2022-09-09T12:57:51;17.00;99.90
26990;DHT22;14537;47.788;11.858;2022-09-09T13:00:18;17.00;99.90
26990;DHT22;14537;47.788;11.858;2022-09-09T13:02:50;16.90;99.90
26990;DHT22;14537;47.788;11.858;2022-09-09T13:05:20;16.80;99.90
26990;DHT22;14537;47.788;11.858;2022-09-09T13:07:46;16.80;99.90
26990;DHT22;14537;47.788;11.858;2022-09-09T13:10:13;16.80;99.90
26990;DHT22;14537;47.788;11.858;2022-09-09T13:12:39;16.90;99.90
26990;DHT22;14537;47.788;11.858;2022-09-09T13:15:10;16.90;99.90
26990;DHT22;14537;47.788;11.858;2022-09-09T13:17:37;16.90;99.90
26990;DHT22;14537;47.788;11.858;2022-09-09T13:20:05;17.00;99.90
26990;DHT22;14537;47.788;11.858;2022-09-09T13:22:33;17.00;99.90
26990;DHT22;14537;47.788;11.858;2022-09-09T13:25:00;17.10;99.90
26990;DHT22;14537;47.788;11.858;2022-09-09T13:29:54;17.10;99.90
26990;DHT22;14537;47.788;11.858;2022-09-09T13:32:23;17.20;99.90
26990;DHT22;14537;47.788;11.858;2022-09-09T13:34:59;17.20;99.90
26990;DHT22;14537;47.788;11.858;2022-09-09T13:39:53;17.20;99.90
26990;DHT22;14537;47.788;11.858;2022-09-09T13:42:24;17.30;99.90
26990;DHT22;14537;47.788;11.858;2022-09-09T13:44:50;17.30;99.90
26990;DHT22;14537;47.788;11.858;2022-09-09T13:47:19;17.40;99.90
26990;DHT22;14537;47.788;11.858;2022-09-09T13:49:45;17.50;99.90
26990;DHT22;14537;47.788;11.858;2022-09-09T13:52:12;17.60;99.90
26990;DHT22;14537;47.788;11.858;2022-09-09T13:54:39;17.60;99.90
26990;DHT22;14537;47.788;11.858;2022-09-09T13:57:05;17.60;99.90
26990;DHT22;14537;47.788;11.858;2022-09-09T13:59:30;17.60;99.90
26990;DHT22;14537;47.788;11.858;2022-09-09T14:01:57;17.70;99.90
26990;DHT22;14537;47.788;11.858;2022-09-09T14:04:22;17.70;99.90
26990;DHT22;14537;47.788;11.858;2022-09-09T14:06:48;17.50;99.90
26990;DHT22;14537;47.788;11.858;2022-09-09T14:09:15;17.30;99.90
26990;DHT22;14537;47.788;11.858;2022-09-09T14:11:41;17.20;99.90
26990;DHT22;14537;47.788;11.858;2022-09-09T14:14:07;17.30;99.90
26990;DHT22;14537;47.788;11.858;2022-09-09T14:16:33;17.30;99.90
26990;DHT22;14537;47.788;11.858;2022-09-09T14:18:58;17.30;99.90
26990;DHT22;14537;47.788;11.858;2022-09-09T14:21:25;17.30;99.90
26990;DHT22;14537;47.788;11.858;2022-09-09T14:23:51;17.30;99.90
26990;DHT22;14537;47.788;11.858;2022-09-09T14:26:18;17.30;99.90
26990;DHT22;14537;47.788;11.858;2022-09-09T14:28:45;17.30;99.90
26990;DHT22;14537;47.788;11.858;2022-09-09T14:31:11;17.30;99.90
26990;DHT22;14537;47.788;11.858;2022-09-09T14:33:38;17.30;99.90
26990;DHT22;14537;47.788;11.858;2022-09-09T14:36:04;17.40;99.90
26990;DHT22;14537;47.788;11.858;2022-09-09T14:38:33;17.40;99.90
26990;DHT22;14537;47.788;11.858;2022-09-09T14:41:00;17.30;99.90
26990;DHT22;14537;47.788;11.858;2022-09-09T14:43:28;17.40;99.90
26990;DHT22;14537;47.788;11.858;2022-09-09T14:45:55;17.40;99.90
26990;DHT22;14537;47.788;11.858;2022-09-09T14:48:20;17.40;99.90
26990;DHT22;14537;47.788;11.858;2022-09-09T14:50:46;17.30;99.90
26990;DHT22;14537;47.788;11.858;2022-09-09T14:53:11;17.30;99.90
26990;DHT22;14537;47.788;11.858;2022-09-09T14:55:37;17.30;99.90
26990;DHT22;14537;47.788;11.858;2022-09-09T14:58:04;17.20;99.90
26990;DHT22;14537;47.788;11.858;2022-09-09T15:00:29;17.30;99.90
26990;DHT22;14537;47.788;11.858;2022-09-09T15:02:55;17.40;99.90
26990;DHT22;14537;47.788;11.858;2022-09-09T15:05:21;17.40;99.90
26990;DHT22;14537;47.788;11.858;2022-09-09T15:07:46;17.50;99.90
26990;DHT22;14537;47.788;11.858;2022-09-09T15:10:13;17.70;99.90
26990;DHT22;14537;47.788;11.858;2022-09-09T15:12:39;17.80;99.90
26990;DHT22;14537;47.788;11.858;2022-09-09T15:15:05;17.90;99.90
26990;DHT22;14537;47.788;11.858;2022-09-09T15:17:31;17.90;99.90
26990;DHT22;14537;47.788;11.858;2022-09-09T15:19:56;18.00;99.90
26990;DHT22;14537;47.788;11.858;2022-09-09T15:22:22;17.90;99.90
26990;DHT22;14537;47.788;11.858;2022-09-09T15:24:49;17.90;99.90
26990;DHT22;14537;47.788;11.858;2022-09-09T15:27:15;18.00;99.90
26990;DHT22;14537;47.788;11.858;2022-09-09T15:29:41;18.00;99.90
26990;DHT22;14537;47.788;11.858;2022-09-09T15:32:07;18.00;99.90
26990;DHT22;14537;47.788;11.858;2022-09-09T15:34:32;18.00;99.90
26990;DHT22;14537;47.788;11.858;2022-09-09T15:36:58;17.90;99.90
26990;DHT22;14537;47.788;11.858;2022-09-09T15:39:25;17.80;99.90
26990;DHT22;14537;47.788;11.858;2022-09-09T15:41:50;17.70;99.90
26990;DHT22;14537;47.788;11.858;2022-09-09T15:44:16;17.60;99.90
26990;DHT22;14537;47.788;11.858;2022-09-09T15:46:44;17.50;99.90
26990;DHT22;14537;47.788;11.858;2022-09-09T15:49:20;17.30;99.90
26990;DHT22;14537;47.788;11.858;2022-09-09T15:51:50;17.20;99.90
26990;DHT22;14537;47.788;11.858;2022-09-09T15:54:17;17.10;99.90
26990;DHT22;14537;47.788;11.858;2022-09-09T15:56:43;17.00;99.90
26990;DHT22;14537;47.788;11.858;2022-09-09T15:59:09;17.00;99.90
26990;DHT22;14537;47.788;11.858;2022-09-09T16:01:34;16.80;99.90
26990;DHT22;14537;47.788;11.858;2022-09-09T16:04:00;16.80;99.90
26990;DHT22;14537;47.788;11.858;2022-09-09T16:06:27;16.70;99.90
26990;DHT22;14537;47.788;11.858;2022-09-09T16:08:54;16.60;99.90
26990;DHT22;14537;47.788;11.858;2022-09-09T16:11:21;16.60;99.90
26990;DHT22;14537;47.788;11.858;2022-09-09T16:13:47;16.60;99.90
26990;DHT22;14537;47.788;11.858;2022-09-09T16:16:14;16.40;99.90
26990;DHT22;14537;47.788;11.858;2022-09-09T16:18:41;16.40;99.90
26990;DHT22;14537;47.788;11.858;2022-09-09T16:21:07;16.30;99.90
26990;DHT22;14537;47.788;11.858;2022-09-09T16:23:33;16.20;99.90
26990;DHT22;14537;47.788;11.858;2022-09-09T16:25:59;16.10;99.90
26990;DHT22;14537;47.788;11.858;2022-09-09T16:28:25;16.10;99.90
26990;DHT22;14537;47.788;11.858;2022-09-09T16:30:50;16.00;99.90
26990;DHT22;14537;47.788;11.858;2022-09-09T16:33:16;15.90;99.90
26990;DHT22;14537;47.788;11.858;2022-09-09T16:35:42;15.90;99.90
26990;DHT22;14537;47.788;11.858;2022-09-09T16:38:08;15.80;99.90
26990;DHT22;14537;47.788;11.858;2022-09-09T16:40:34;15.80;99.90
26990;DHT22;14537;47.788;11.858;2022-09-09T16:43:00;15.90;99.90
26990;DHT22;14537;47.788;11.858;2022-09-09T16:45:26;15.80;99.90
26990;DHT22;14537;47.788;11.858;2022-09-09T16:47:52;15.80;99.90
26990;DHT22;14537;47.788;11.858;2022-09-09T16:50:18;15.70;99.90
26990;DHT22;14537;47.788;11.858;2022-09-09T16:52:43;15.70;99.90
26990;DHT22;14537;47.788;11.858;2022-09-09T16:55:09;15.60;99.90
26990;DHT22;14537;47.788;11.858;2022-09-09T16:57:34;15.60;99.90
26990;DHT22;14537;47.788;11.858;2022-09-09T17:00:00;15.50;99.90
26990;DHT22;14537;47.788;11.858;2022-09-09T17:02:26;15.50;99.90
26990;DHT22;14537;47.788;11.858;2022-09-09T17:04:52;15.50;99.90
26990;DHT22;14537;47.788;11.858;2022-09-09T17:07:17;15.50;99.90
26990;DHT22;14537;47.788;11.858;2022-09-09T17:09:44;15.60;99.90
26990;DHT22;14537;47.788;11.858;2022-09-09T17:12:10;15.60;99.90
26990;DHT22;14537;47.788;11.858;2022-09-09T17:14:37;15.60;99.90
26990;DHT22;14537;47.788;11.858;2022-09-09T17:17:03;15.60;99.90
26990;DHT22;14537;47.788;11.858;2022-09-09T17:19:30;15.60;99.90
26990;DHT22;14537;47.788;11.858;2022-09-09T17:21:55;15.70;99.90
26990;DHT22;14537;47.788;11.858;2022-09-09T17:24:22;15.60;99.90